sensor_id;sensor_type;location;lat;lon;timestamp;noise_LAeq;noise_LA_min;noise_LA_max;noise_LA01;noise_LA95
46584;Laerm;32309;48.858;8.252;2023-02-27T00:01:21;60.81;40.98;85.03;;
46584;Laerm;32309;48.858;8.252;2023-02-27T00:03:21;60.71;39.92;86.57;;
46584;Laerm;32309;48.858;8.252;2023-02-27T00:05:22;60.40;42.09;90.05;;
46584;Laerm;32309;48.858;8.252;2023-02-27T00:07:23;51.86;40.53;75.97;;
46584;Laerm;32309;48.858;8.252;2023-02-27T00:09:25;51.89;40.43;72.89;;
46584;Laerm;32309;48.858;8.252;2023-02-27T00:11:26;55.26;40.89;76.02;;
46584;Laerm;32309;48.858;8.252;2023-02-27T00:13:26;55.26;40.89;76.02;;
46584;Laerm;32309;48.858;8.252;2023-02-27T00:15:26;60.66;42.35;83.72;;
46584;Laerm;32309;48.858;8.252;2023-02-27T00:17:29;46.95;40.71;66.66;;
46584;Laerm;32309;48.858;8.252;2023-02-27T00:19:30;49.20;40.53;73.15;;
46584;Laerm;32309;48.858;8.252;2023-02-27T00:23:31;61.78;42.09;88.85;;
46584;Laerm;32309;48.858;8.252;2023-02-27T00:25:32;48.36;42.03;72.54;;
46584;Laerm;32309;48.858;8.252;2023-02-27T00:27:33;49.38;40.54;75.27;;
46584;Laerm;32309;48.858;8.252;2023-02-27T00:29:34;63.13;40.53;86.26;;
46584;Laerm;32309;48.858;8.252;2023-02-27T00:33:34;66.99;40.98;91.41;;
46584;Laerm;32309;48.858;8.252;2023-02-27T00:35:34;54.10;39.70;75.23;;
46584;Laerm;32309;48.858;8.252;2023-02-27T00:37:35;63.18;41.68;87.61;;
46584;Laerm;32309;48.858;8.252;2023-02-27T00:39:35;58.04;42.22;81.83;;
46584;Laerm;32309;48.858;8.252;2023-02-27T00:41:36;63.29;41.89;90.58;;
46584;Laerm;32309;48.858;8.252;2023-02-27T00:43:36;51.89;42.71;73.92;;
46584;Laerm;32309;48.858;8.252;2023-02-27T00:45:36;49.06;42.03;74.93;;
46584;Laerm;32309;48.858;8.252;2023-02-27T00:47:36;54.82;40.89;77.07;;
46584;Laerm;32309;48.858;8.252;2023-02-27T00:49:37;52.27;42.29;74.22;;
46584;Laerm;32309;48.858;8.252;2023-02-27T00:51:37;47.37;41.14;70.78;;
46584;Laerm;32309;48.858;8.252;2023-02-27T00:53:37;51.31;42.16;72.29;;
46584;Laerm;32309;48.858;8.252;2023-02-27T00:57:38;58.57;42.88;83.41;;
46584;Laerm;32309;48.858;8.252;2023-02-27T00:59:39;57.56;42.47;83.93;;
46584;Laerm;32309;48.858;8.252;2023-02-27T01:01:39;50.77;39.70;71.25;;
46584;Laerm;32309;48.858;8.252;2023-02-27T01:03:40;50.77;39.70;71.25;;
46584;Laerm;32309;48.858;8.252;2023-02-27T01:05:40;50.17;40.80;68.25;;
46584;Laerm;32309;48.858;8.252;2023-02-27T01:07:41;54.00;42.09;83.86;;
46584;Laerm;32309;48.858;8.252;2023-02-27T01:09:41;50.06;40.98;74.43;;
46584;Laerm;32309;48.858;8.252;2023-02-27T01:11:41;48.46;40.23;65.91;;
46584;Laerm;32309;48.858;8.252;2023-02-27T01:13:42;49.86;41.30;72.91;;
46584;Laerm;32309;48.858;8.252;2023-02-27T01:15:43;47.49;40.62;62.09;;
46584;Laerm;32309;48.858;8.252;2023-02-27T01:17:43;56.23;41.61;79.08;;
46584;Laerm;32309;48.858;8.252;2023-02-27T01:19:43;48.22;39.81;67.99;;
46584;Laerm;32309;48.858;8.252;2023-02-27T01:21:44;48.07;40.33;76.35;;
46584;Laerm;32309;48.858;8.252;2023-02-27T01:23:44;48.58;41.38;74.30;;
46584;Laerm;32309;48.858;8.252;2023-02-27T01:25:46;61.42;40.98;81.84;;
46584;Laerm;32309;48.858;8.252;2023-02-27T01:27:46;51.96;42.93;78.51;;
46584;Laerm;32309;48.858;8.252;2023-02-27T01:29:47;61.15;41.53;88.59;;
46584;Laerm;32309;48.858;8.252;2023-02-27T01:31:47;51.55;42.16;68.57;;
46584;Laerm;32309;48.858;8.252;2023-02-27T01:33:48;55.65;40.80;79.60;;
46584;Laerm;32309;48.858;8.252;2023-02-27T01:35:48;49.31;39.46;73.83;;
46584;Laerm;32309;48.858;8.252;2023-02-27T01:37:48;60.05;39.81;84.66;;
46584;Laerm;32309;48.858;8.252;2023-02-27T01:39:49;46.33;40.89;61.88;;
46584;Laerm;32309;48.858;8.252;2023-02-27T01:41:49;52.74;42.53;72.94;;
46584;Laerm;32309;48.858;8.252;2023-02-27T01:44:03;52.83;43.54;78.56;;
46584;Laerm;32309;48.858;8.252;2023-02-27T01:46:04;48.58;39.21;73.26;;
46584;Laerm;32309;48.858;8.252;2023-02-27T01:48:20;47.76;39.34;68.59;;
46584;Laerm;32309;48.858;8.252;2023-02-27T01:50:23;51.61;42.88;72.24;;
46584;Laerm;32309;48.858;8.252;2023-02-27T01:52:24;49.23;42.16;66.22;;
46584;Laerm;32309;48.858;8.252;2023-02-27T01:54:25;49.03;41.46;69.44;;
46584;Laerm;32309;48.858;8.252;2023-02-27T01:56:28;57.03;44.23;85.10;;
46584;Laerm;32309;48.858;8.252;2023-02-27T02:00:30;49.27;41.46;73.30;;
46584;Laerm;32309;48.858;8.252;2023-02-27T02:02:36;52.05;42.16;75.29;;
46584;Laerm;32309;48.858;8.252;2023-02-27T02:04:38;58.09;42.09;83.18;;
46584;Laerm;32309;48.858;8.252;2023-02-27T02:06:43;53.47;42.29;76.30;;
46584;Laerm;32309;48.858;8.252;2023-02-27T02:10:47;52.12;39.21;76.57;;
46584;Laerm;32309;48.858;8.252;2023-02-27T02:14:50;46.97;41.82;67.48;;
46584;Laerm;32309;48.858;8.252;2023-02-27T02:21:48;55.38;42.29;83.00;;
46584;Laerm;32309;48.858;8.252;2023-02-27T02:26:35;50.33;42.82;67.70;;
46584;Laerm;32309;48.858;8.252;2023-02-27T02:46:30;55.13;43.04;78.71;;
46584;Laerm;32309;48.858;8.252;2023-02-27T02:48:40;53.55;44.03;77.02;;
46584;Laerm;32309;48.858;8.252;2023-02-27T02:53:23;51.60;44.15;68.39;;
46584;Laerm;32309;48.858;8.252;2023-02-27T02:57:51;58.41;43.72;79.62;;
46584;Laerm;32309;48.858;8.252;2023-02-27T03:00:00;54.66;41.81;78.44;;
46584;Laerm;32309;48.858;8.252;2023-02-27T03:02:08;58.60;42.65;83.52;;
46584;Laerm;32309;48.858;8.252;2023-02-27T03:06:33;52.46;41.75;75.71;;
46584;Laerm;32309;48.858;8.252;2023-02-27T03:08:40;51.23;43.58;79.17;;
46584;Laerm;32309;48.858;8.252;2023-02-27T03:10:45;52.51;44.07;69.83;;
46584;Laerm;32309;48.858;8.252;2023-02-27T03:12:51;50.66;44.56;61.13;;
46584;Laerm;32309;48.858;8.252;2023-02-27T03:15:05;52.76;46.05;69.00;;
46584;Laerm;32309;48.858;8.252;2023-02-27T03:17:17;52.95;43.54;75.43;;
46584;Laerm;32309;48.858;8.252;2023-02-27T03:19:49;56.36;44.11;83.21;;
46584;Laerm;32309;48.858;8.252;2023-02-27T03:21:50;56.69;43.77;79.94;;
46584;Laerm;32309;48.858;8.252;2023-02-27T03:23:55;51.28;44.49;71.24;;
46584;Laerm;32309;48.858;8.252;2023-02-27T03:25:58;51.28;44.23;74.30;;
46584;Laerm;32309;48.858;8.252;2023-02-27T03:28:01;55.09;44.54;81.77;;
46584;Laerm;32309;48.858;8.252;2023-02-27T03:34:17;55.08;43.72;76.38;;
46584;Laerm;32309;48.858;8.252;2023-02-27T03:39:19;58.73;44.65;82.47;;
46584;Laerm;32309;48.858;8.252;2023-02-27T03:41:28;53.39;44.35;74.68;;
46584;Laerm;32309;48.858;8.252;2023-02-27T03:43:39;51.36;43.09;72.01;;
46584;Laerm;32309;48.858;8.252;2023-02-27T03:47:52;58.51;45.51;84.22;;
46584;Laerm;32309;48.858;8.252;2023-02-27T03:49:53;59.39;45.23;83.76;;
46584;Laerm;32309;48.858;8.252;2023-02-27T03:51:54;57.53;45.33;81.39;;
46584;Laerm;32309;48.858;8.252;2023-02-27T03:54:14;58.23;45.75;82.83;;
46584;Laerm;32309;48.858;8.252;2023-02-27T03:56:20;52.19;44.11;77.20;;
46584;Laerm;32309;48.858;8.252;2023-02-27T03:58:23;58.45;46.20;81.57;;
46584;Laerm;32309;48.858;8.252;2023-02-27T04:02:25;63.83;46.23;90.87;;
46584;Laerm;32309;48.858;8.252;2023-02-27T04:04:28;67.62;47.20;88.10;;
46584;Laerm;32309;48.858;8.252;2023-02-27T04:13:43;58.36;47.12;84.40;;
46584;Laerm;32309;48.858;8.252;2023-02-27T04:18:28;58.00;47.50;81.78;;
46584;Laerm;32309;48.858;8.252;2023-02-27T04:22:37;59.41;48.18;85.42;;
46584;Laerm;32309;48.858;8.252;2023-02-27T04:29:03;59.94;48.92;81.88;;
46584;Laerm;32309;48.858;8.252;2023-02-27T04:35:34;60.17;47.59;82.84;;
46584;Laerm;32309;48.858;8.252;2023-02-27T04:39:56;57.60;48.54;79.02;;
46584;Laerm;32309;48.858;8.252;2023-02-27T04:42:02;66.55;48.45;91.51;;
46584;Laerm;32309;48.858;8.252;2023-02-27T04:44:06;58.30;48.63;81.84;;
46584;Laerm;32309;48.858;8.252;2023-02-27T04:48:22;66.10;46.88;91.49;;
46584;Laerm;32309;48.858;8.252;2023-02-27T04:50:36;61.22;47.22;87.83;;
46584;Laerm;32309;48.858;8.252;2023-02-27T04:52:43;62.18;48.78;86.33;;
46584;Laerm;32309;48.858;8.252;2023-02-27T04:55:28;63.05;47.81;92.50;;
46584;Laerm;32309;48.858;8.252;2023-02-27T05:00:02;57.57;48.05;79.55;;
46584;Laerm;32309;48.858;8.252;2023-02-27T05:02:14;65.77;47.83;90.47;;
46584;Laerm;32309;48.858;8.252;2023-02-27T05:04:18;59.85;48.45;83.26;;
46584;Laerm;32309;48.858;8.252;2023-02-27T05:06:26;60.37;48.18;86.83;;
46584;Laerm;32309;48.858;8.252;2023-02-27T05:10:49;60.29;50.09;82.61;;
46584;Laerm;32309;48.858;8.252;2023-02-27T05:12:56;57.35;47.26;78.34;;
46584;Laerm;32309;48.858;8.252;2023-02-27T05:15:16;54.75;47.77;67.68;;
46584;Laerm;32309;48.858;8.252;2023-02-27T05:19:38;61.22;47.68;84.74;;
46584;Laerm;32309;48.858;8.252;2023-02-27T05:24:11;56.41;48.25;80.58;;
46584;Laerm;32309;48.858;8.252;2023-02-27T05:26:21;63.62;49.20;85.78;;
46584;Laerm;32309;48.858;8.252;2023-02-27T05:28:35;58.87;49.10;84.24;;
46584;Laerm;32309;48.858;8.252;2023-02-27T05:30:48;56.74;48.99;78.55;;
46584;Laerm;32309;48.858;8.252;2023-02-27T05:32:56;56.10;49.30;74.63;;
46584;Laerm;32309;48.858;8.252;2023-02-27T05:35:11;55.84;47.52;75.12;;
46584;Laerm;32309;48.858;8.252;2023-02-27T05:37:16;57.51;49.79;82.30;;
46584;Laerm;32309;48.858;8.252;2023-02-27T05:39:19;53.11;48.43;70.10;;
46584;Laerm;32309;48.858;8.252;2023-02-27T05:41:25;55.40;49.36;69.95;;
46584;Laerm;32309;48.858;8.252;2023-02-27T05:43:31;55.17;48.36;73.91;;
46584;Laerm;32309;48.858;8.252;2023-02-27T05:45:35;56.47;49.49;79.45;;
46584;Laerm;32309;48.858;8.252;2023-02-27T05:47:39;62.59;50.59;84.47;;
46584;Laerm;32309;48.858;8.252;2023-02-27T05:49:48;55.30;49.72;74.29;;
46584;Laerm;32309;48.858;8.252;2023-02-27T05:54:15;55.23;49.69;76.35;;
46584;Laerm;32309;48.858;8.252;2023-02-27T05:58:31;60.46;50.33;84.57;;
46584;Laerm;32309;48.858;8.252;2023-02-27T06:02:48;60.51;51.00;87.52;;
46584;Laerm;32309;48.858;8.252;2023-02-27T06:04:48;56.94;50.31;75.32;;
46584;Laerm;32309;48.858;8.252;2023-02-27T06:06:48;58.82;49.98;81.95;;
46584;Laerm;32309;48.858;8.252;2023-02-27T06:08:49;56.62;49.88;77.13;;
46584;Laerm;32309;48.858;8.252;2023-02-27T06:10:49;56.07;49.14;73.78;;
46584;Laerm;32309;48.858;8.252;2023-02-27T06:12:49;56.30;48.58;74.54;;
46584;Laerm;32309;48.858;8.252;2023-02-27T06:14:50;55.41;48.54;74.13;;
46584;Laerm;32309;48.858;8.252;2023-02-27T06:16:50;59.71;49.07;81.41;;
46584;Laerm;32309;48.858;8.252;2023-02-27T06:18:51;65.75;48.64;88.97;;
46584;Laerm;32309;48.858;8.252;2023-02-27T06:20:51;54.81;49.00;74.94;;
46584;Laerm;32309;48.858;8.252;2023-02-27T06:22:51;56.11;48.48;78.02;;
46584;Laerm;32309;48.858;8.252;2023-02-27T06:24:52;59.38;49.16;85.56;;
46584;Laerm;32309;48.858;8.252;2023-02-27T06:26:52;58.23;49.64;82.82;;
46584;Laerm;32309;48.858;8.252;2023-02-27T06:28:52;55.72;48.73;69.75;;
46584;Laerm;32309;48.858;8.252;2023-02-27T06:30:54;64.40;49.90;86.37;;
46584;Laerm;32309;48.858;8.252;2023-02-27T06:32:54;56.14;49.33;78.46;;
46584;Laerm;32309;48.858;8.252;2023-02-27T06:34:54;61.31;49.72;80.58;;
46584;Laerm;32309;48.858;8.252;2023-02-27T06:38:55;62.26;49.02;85.24;;
46584;Laerm;32309;48.858;8.252;2023-02-27T06:40:57;64.84;50.49;91.90;;
46584;Laerm;32309;48.858;8.252;2023-02-27T06:42:57;54.58;48.43;69.31;;
46584;Laerm;32309;48.858;8.252;2023-02-27T06:44:58;56.65;47.50;75.30;;
46584;Laerm;32309;48.858;8.252;2023-02-27T07:03:18;55.36;46.84;76.28;;
46584;Laerm;32309;48.858;8.252;2023-02-27T07:07:19;54.25;48.03;72.15;;
46584;Laerm;32309;48.858;8.252;2023-02-27T07:09:19;54.13;47.48;71.48;;
46584;Laerm;32309;48.858;8.252;2023-02-27T07:11:19;54.41;47.20;68.75;;
46584;Laerm;32309;48.858;8.252;2023-02-27T07:13:20;56.78;48.15;77.12;;
46584;Laerm;32309;48.858;8.252;2023-02-27T07:17:21;56.12;47.42;80.51;;
46584;Laerm;32309;48.858;8.252;2023-02-27T07:23:23;57.53;48.87;79.71;;
46584;Laerm;32309;48.858;8.252;2023-02-27T07:25:23;54.22;47.70;73.42;;
46584;Laerm;32309;48.858;8.252;2023-02-27T07:27:24;54.86;48.28;71.09;;
46584;Laerm;32309;48.858;8.252;2023-02-27T07:29:24;54.23;46.95;69.85;;
46584;Laerm;32309;48.858;8.252;2023-02-27T07:31:24;65.38;48.32;92.77;;
46584;Laerm;32309;48.858;8.252;2023-02-27T07:33:25;55.69;47.61;75.60;;
46584;Laerm;32309;48.858;8.252;2023-02-27T07:37:25;55.19;48.63;75.86;;
46584;Laerm;32309;48.858;8.252;2023-02-27T07:39:26;57.58;47.26;80.36;;
46584;Laerm;32309;48.858;8.252;2023-02-27T07:41:26;52.77;47.14;61.46;;
46584;Laerm;32309;48.858;8.252;2023-02-27T07:43:26;54.12;47.96;65.70;;
46584;Laerm;32309;48.858;8.252;2023-02-27T07:45:27;53.63;48.16;72.23;;
46584;Laerm;32309;48.858;8.252;2023-02-27T07:47:27;58.09;47.10;77.29;;
46584;Laerm;32309;48.858;8.252;2023-02-27T07:49:29;53.33;45.98;66.84;;
46584;Laerm;32309;48.858;8.252;2023-02-27T07:53:30;69.16;48.74;90.84;;
46584;Laerm;32309;48.858;8.252;2023-02-27T07:55:30;60.21;48.85;79.86;;
46584;Laerm;32309;48.858;8.252;2023-02-27T07:57:31;56.90;47.79;74.33;;
46584;Laerm;32309;48.858;8.252;2023-02-27T07:59:31;59.71;49.58;82.47;;
46584;Laerm;32309;48.858;8.252;2023-02-27T08:01:32;67.37;48.87;91.20;;
46584;Laerm;32309;48.858;8.252;2023-02-27T08:05:32;64.44;47.50;88.08;;
46584;Laerm;32309;48.858;8.252;2023-02-27T08:07:33;63.44;47.38;85.30;;
46584;Laerm;32309;48.858;8.252;2023-02-27T08:09:35;68.04;47.79;93.01;;
46584;Laerm;32309;48.858;8.252;2023-02-27T08:11:35;67.43;47.67;92.99;;
46584;Laerm;32309;48.858;8.252;2023-02-27T08:13:36;65.57;47.06;87.54;;
46584;Laerm;32309;48.858;8.252;2023-02-27T08:15:36;69.27;47.18;91.55;;
46584;Laerm;32309;48.858;8.252;2023-02-27T08:17:36;63.85;47.74;81.73;;
46584;Laerm;32309;48.858;8.252;2023-02-27T08:19:37;58.04;46.43;80.74;;
46584;Laerm;32309;48.858;8.252;2023-02-27T08:21:37;67.90;47.86;91.30;;
46584;Laerm;32309;48.858;8.252;2023-02-27T08:23:37;74.55;49.41;96.22;;
46584;Laerm;32309;48.858;8.252;2023-02-27T08:25:38;73.66;48.78;95.18;;
46584;Laerm;32309;48.858;8.252;2023-02-27T08:27:38;76.02;48.36;96.14;;
46584;Laerm;32309;48.858;8.252;2023-02-27T08:29:40;69.83;49.25;92.75;;
46584;Laerm;32309;48.858;8.252;2023-02-27T08:31:42;71.03;47.50;90.15;;
46584;Laerm;32309;48.858;8.252;2023-02-27T08:33:42;68.19;47.50;88.80;;
46584;Laerm;32309;48.858;8.252;2023-02-27T08:35:43;68.98;48.07;91.51;;
46584;Laerm;32309;48.858;8.252;2023-02-27T08:37:43;68.67;50.05;89.31;;
46584;Laerm;32309;48.858;8.252;2023-02-27T08:39:43;64.99;47.52;87.45;;
46584;Laerm;32309;48.858;8.252;2023-02-27T08:41:43;62.75;48.21;82.13;;
46584;Laerm;32309;48.858;8.252;2023-02-27T08:43:44;70.19;49.82;92.48;;
46584;Laerm;32309;48.858;8.252;2023-02-27T08:45:45;68.24;49.45;87.10;;
46584;Laerm;32309;48.858;8.252;2023-02-27T08:47:45;61.05;48.10;82.59;;
46584;Laerm;32309;48.858;8.252;2023-02-27T08:49:45;69.28;50.20;91.17;;
46584;Laerm;32309;48.858;8.252;2023-02-27T08:51:46;72.29;49.76;96.56;;
46584;Laerm;32309;48.858;8.252;2023-02-27T08:53:46;66.80;49.21;90.05;;
46584;Laerm;32309;48.858;8.252;2023-02-27T08:55:49;65.72;49.53;89.43;;
46584;Laerm;32309;48.858;8.252;2023-02-27T08:57:52;60.34;48.05;81.71;;
46584;Laerm;32309;48.858;8.252;2023-02-27T08:59:52;70.32;47.09;93.97;;
46584;Laerm;32309;48.858;8.252;2023-02-27T09:01:53;60.78;48.54;82.58;;
46584;Laerm;32309;48.858;8.252;2023-02-27T09:03:53;68.23;47.95;89.39;;
46584;Laerm;32309;48.858;8.252;2023-02-27T09:05:54;68.23;47.95;89.39;;
46584;Laerm;32309;48.858;8.252;2023-02-27T09:07:55;73.34;48.94;96.20;;
46584;Laerm;32309;48.858;8.252;2023-02-27T09:09:55;57.52;47.10;74.51;;
46584;Laerm;32309;48.858;8.252;2023-02-27T09:11:55;61.65;47.20;79.54;;
46584;Laerm;32309;48.858;8.252;2023-02-27T09:13:56;62.52;47.52;83.60;;
46584;Laerm;32309;48.858;8.252;2023-02-27T09:15:56;72.34;47.20;96.04;;
46584;Laerm;32309;48.858;8.252;2023-02-27T09:17:57;75.68;48.70;99.96;;
46584;Laerm;32309;48.858;8.252;2023-02-27T09:20:02;60.16;48.51;78.75;;
46584;Laerm;32309;48.858;8.252;2023-02-27T09:22:03;68.58;47.16;91.79;;
46584;Laerm;32309;48.858;8.252;2023-02-27T09:24:04;76.84;49.06;96.20;;
46584;Laerm;32309;48.858;8.252;2023-02-27T09:26:04;73.83;47.54;96.83;;
46584;Laerm;32309;48.858;8.252;2023-02-27T09:28:05;69.93;47.40;88.68;;
46584;Laerm;32309;48.858;8.252;2023-02-27T09:30:06;62.45;47.83;80.11;;
46584;Laerm;32309;48.858;8.252;2023-02-27T09:32:07;70.75;46.55;91.90;;
46584;Laerm;32309;48.858;8.252;2023-02-27T09:34:07;71.95;49.19;95.31;;
46584;Laerm;32309;48.858;8.252;2023-02-27T09:36:08;63.49;47.77;84.04;;
46584;Laerm;32309;48.858;8.252;2023-02-27T09:42:23;67.88;48.58;89.99;;
46584;Laerm;32309;48.858;8.252;2023-02-27T09:44:47;68.55;47.95;90.56;;
46584;Laerm;32309;48.858;8.252;2023-02-27T09:46:48;62.45;47.96;85.94;;
46584;Laerm;32309;48.858;8.252;2023-02-27T09:48:54;62.84;47.79;83.37;;
46584;Laerm;32309;48.858;8.252;2023-02-27T09:50:56;63.12;48.51;85.58;;
46584;Laerm;32309;48.858;8.252;2023-02-27T09:52:58;61.84;48.07;84.17;;
46584;Laerm;32309;48.858;8.252;2023-02-27T09:54:58;75.73;47.18;100.61;;
46584;Laerm;32309;48.858;8.252;2023-02-27T09:57:02;78.91;49.15;100.62;;
46584;Laerm;32309;48.858;8.252;2023-02-27T09:59:11;70.41;50.27;90.11;;
46584;Laerm;32309;48.858;8.252;2023-02-27T10:01:21;75.31;50.57;99.53;;
46584;Laerm;32309;48.858;8.252;2023-02-27T10:06:09;73.77;50.14;95.72;;
46584;Laerm;32309;48.858;8.252;2023-02-27T10:08:13;75.43;48.96;99.16;;
46584;Laerm;32309;48.858;8.252;2023-02-27T10:10:28;66.70;46.80;90.90;;
46584;Laerm;32309;48.858;8.252;2023-02-27T10:14:50;69.39;48.60;92.18;;
46584;Laerm;32309;48.858;8.252;2023-02-27T10:16:52;71.42;50.65;91.92;;
46584;Laerm;32309;48.858;8.252;2023-02-27T10:19:01;68.26;48.70;88.81;;
46584;Laerm;32309;48.858;8.252;2023-02-27T10:21:09;71.19;47.81;98.64;;
46584;Laerm;32309;48.858;8.252;2023-02-27T10:23:16;69.85;48.67;92.78;;
46584;Laerm;32309;48.858;8.252;2023-02-27T10:25:18;71.23;50.30;91.80;;
46584;Laerm;32309;48.858;8.252;2023-02-27T10:27:20;75.40;50.17;98.28;;
46584;Laerm;32309;48.858;8.252;2023-02-27T10:29:31;81.43;50.12;103.36;;
46584;Laerm;32309;48.858;8.252;2023-02-27T10:31:32;75.17;46.84;97.11;;
46584;Laerm;32309;48.858;8.252;2023-02-27T10:33:38;74.63;49.39;98.93;;
46584;Laerm;32309;48.858;8.252;2023-02-27T10:35:43;67.83;48.95;91.98;;
46584;Laerm;32309;48.858;8.252;2023-02-27T10:37:55;75.79;50.23;100.78;;
46584;Laerm;32309;48.858;8.252;2023-02-27T10:42:04;72.68;50.11;93.37;;
46584;Laerm;32309;48.858;8.252;2023-02-27T10:44:06;73.31;50.13;93.20;;
46584;Laerm;32309;48.858;8.252;2023-02-27T10:48:13;65.99;50.72;85.63;;
46584;Laerm;32309;48.858;8.252;2023-02-27T10:52:23;74.44;49.53;100.31;;
46584;Laerm;32309;48.858;8.252;2023-02-27T10:54:24;73.65;50.26;94.99;;
46584;Laerm;32309;48.858;8.252;2023-02-27T10:56:25;68.90;49.14;88.14;;
46584;Laerm;32309;48.858;8.252;2023-02-27T10:58:29;70.46;48.46;92.18;;
46584;Laerm;32309;48.858;8.252;2023-02-27T11:00:44;75.50;49.55;96.39;;
46584;Laerm;32309;48.858;8.252;2023-02-27T11:02:48;73.86;49.83;94.89;;
46584;Laerm;32309;48.858;8.252;2023-02-27T11:04:51;77.09;51.30;97.70;;
46584;Laerm;32309;48.858;8.252;2023-02-27T11:06:53;78.33;51.04;97.39;;
46584;Laerm;32309;48.858;8.252;2023-02-27T11:09:20;67.34;48.20;89.32;;
46584;Laerm;32309;48.858;8.252;2023-02-27T11:11:26;68.03;49.11;87.47;;
46584;Laerm;32309;48.858;8.252;2023-02-27T11:13:32;68.14;49.69;89.57;;
46584;Laerm;32309;48.858;8.252;2023-02-27T11:15:35;68.82;49.81;89.32;;
46584;Laerm;32309;48.858;8.252;2023-02-27T11:17:36;74.19;46.82;99.81;;
46584;Laerm;32309;48.858;8.252;2023-02-27T11:19:38;72.53;49.33;96.58;;
46584;Laerm;32309;48.858;8.252;2023-02-27T11:21:38;74.77;49.72;95.27;;
46584;Laerm;32309;48.858;8.252;2023-02-27T11:24:02;78.39;50.03;96.95;;
46584;Laerm;32309;48.858;8.252;2023-02-27T11:26:15;74.29;48.61;97.95;;
46584;Laerm;32309;48.858;8.252;2023-02-27T11:28:26;70.05;47.10;92.12;;
46584;Laerm;32309;48.858;8.252;2023-02-27T11:30:28;68.61;47.70;87.82;;
46584;Laerm;32309;48.858;8.252;2023-02-27T11:32:40;71.35;47.26;96.91;;
46584;Laerm;32309;48.858;8.252;2023-02-27T11:34:50;76.90;48.18;95.75;;
46584;Laerm;32309;48.858;8.252;2023-02-27T11:36:58;71.50;47.84;96.63;;
46584;Laerm;32309;48.858;8.252;2023-02-27T11:38:59;75.00;46.93;97.81;;
46584;Laerm;32309;48.858;8.252;2023-02-27T11:41:02;75.00;46.93;97.81;;
46584;Laerm;32309;48.858;8.252;2023-02-27T11:43:06;67.10;48.71;90.36;;
46584;Laerm;32309;48.858;8.252;2023-02-27T11:47:24;64.30;46.20;87.42;;
46584;Laerm;32309;48.858;8.252;2023-02-27T11:49:45;71.20;50.60;93.16;;
46584;Laerm;32309;48.858;8.252;2023-02-27T11:52:11;76.15;51.39;95.74;;
46584;Laerm;32309;48.858;8.252;2023-02-27T11:56:42;73.22;49.82;97.75;;
46584;Laerm;32309;48.858;8.252;2023-02-27T11:58:57;74.66;48.74;97.52;;
46584;Laerm;32309;48.858;8.252;2023-02-27T12:01:06;64.36;49.75;91.67;;
46584;Laerm;32309;48.858;8.252;2023-02-27T12:05:18;61.12;48.46;83.40;;
46584;Laerm;32309;48.858;8.252;2023-02-27T12:07:26;74.57;50.02;95.30;;
46584;Laerm;32309;48.858;8.252;2023-02-27T12:09:35;78.32;50.45;103.44;;
46584;Laerm;32309;48.858;8.252;2023-02-27T12:11:41;78.03;50.13;98.23;;
46584;Laerm;32309;48.858;8.252;2023-02-27T12:13:48;74.19;48.71;94.39;;
46584;Laerm;32309;48.858;8.252;2023-02-27T12:18:23;75.23;52.17;98.83;;
46584;Laerm;32309;48.858;8.252;2023-02-27T12:22:35;75.03;48.00;97.25;;
46584;Laerm;32309;48.858;8.252;2023-02-27T12:24:43;72.35;48.07;93.60;;
46584;Laerm;32309;48.858;8.252;2023-02-27T12:26:45;73.27;49.94;95.87;;
46584;Laerm;32309;48.858;8.252;2023-02-27T12:29:02;76.50;49.74;101.13;;
46584;Laerm;32309;48.858;8.252;2023-02-27T12:31:26;77.34;50.34;99.43;;
46584;Laerm;32309;48.858;8.252;2023-02-27T12:33:40;75.07;50.24;97.72;;
46584;Laerm;32309;48.858;8.252;2023-02-27T12:35:45;78.37;50.56;98.16;;
46584;Laerm;32309;48.858;8.252;2023-02-27T12:37:50;75.10;50.58;98.44;;
46584;Laerm;32309;48.858;8.252;2023-02-27T12:39:53;74.69;49.57;94.39;;
46584;Laerm;32309;48.858;8.252;2023-02-27T12:44:22;70.17;49.82;91.75;;
46584;Laerm;32309;48.858;8.252;2023-02-27T12:49:24;77.89;48.76;99.70;;
46584;Laerm;32309;48.858;8.252;2023-02-27T12:54:01;76.67;47.95;98.52;;
46584;Laerm;32309;48.858;8.252;2023-02-27T12:56:11;71.47;47.67;93.41;;
46584;Laerm;32309;48.858;8.252;2023-02-27T12:58:32;77.27;50.44;104.80;;
46584;Laerm;32309;48.858;8.252;2023-02-27T13:00:45;67.92;47.72;89.64;;
46584;Laerm;32309;48.858;8.252;2023-02-27T13:03:11;71.44;49.25;90.70;;
46584;Laerm;32309;48.858;8.252;2023-02-27T13:10:49;74.63;49.33;97.15;;
46584;Laerm;32309;48.858;8.252;2023-02-27T13:13:11;78.44;48.70;97.09;;
46584;Laerm;32309;48.858;8.252;2023-02-27T16:23:31;68.73;48.77;90.56;;
46584;Laerm;32309;48.858;8.252;2023-02-27T16:25:38;74.09;49.21;95.82;;
46584;Laerm;32309;48.858;8.252;2023-02-27T16:29:59;74.50;48.58;95.76;;
46584;Laerm;32309;48.858;8.252;2023-02-27T16:34:51;60.76;46.94;80.91;;
46584;Laerm;32309;48.858;8.252;2023-02-27T16:39:57;65.57;47.67;90.10;;
46584;Laerm;32309;48.858;8.252;2023-02-27T16:44:20;66.93;47.70;88.81;;
46584;Laerm;32309;48.858;8.252;2023-02-27T16:46:40;73.91;48.88;93.96;;
46584;Laerm;32309;48.858;8.252;2023-02-27T16:50:42;79.41;50.35;97.39;;
46584;Laerm;32309;48.858;8.252;2023-02-27T16:52:42;77.50;48.02;96.02;;
46584;Laerm;32309;48.858;8.252;2023-02-27T16:54:43;67.11;48.74;93.32;;
46584;Laerm;32309;48.858;8.252;2023-02-27T16:56:44;65.15;47.93;88.46;;
46584;Laerm;32309;48.858;8.252;2023-02-27T16:58:45;76.28;48.70;96.68;;
46584;Laerm;32309;48.858;8.252;2023-02-27T17:02:53;58.24;47.04;78.99;;
46584;Laerm;32309;48.858;8.252;2023-02-27T17:04:54;60.56;46.67;81.33;;
46584;Laerm;32309;48.858;8.252;2023-02-27T17:06:59;71.58;48.29;93.43;;
46584;Laerm;32309;48.858;8.252;2023-02-27T17:11:35;64.23;47.14;85.96;;
46584;Laerm;32309;48.858;8.252;2023-02-27T17:14:24;61.22;47.52;87.45;;
46584;Laerm;32309;48.858;8.252;2023-02-27T17:16:06;53.56;46.02;73.18;;
46584;Laerm;32309;48.858;8.252;2023-02-27T17:18:06;54.19;47.14;72.07;;
46584;Laerm;32309;48.858;8.252;2023-02-27T17:20:11;76.26;46.82;97.63;;
46584;Laerm;32309;48.858;8.252;2023-02-27T17:22:23;71.16;47.02;92.65;;
46584;Laerm;32309;48.858;8.252;2023-02-27T17:24:23;60.09;47.26;81.01;;
46584;Laerm;32309;48.858;8.252;2023-02-27T17:26:23;62.31;46.45;85.81;;
46584;Laerm;32309;48.858;8.252;2023-02-27T17:28:26;62.30;45.91;87.27;;
46584;Laerm;32309;48.858;8.252;2023-02-27T17:30:26;66.75;45.60;88.05;;
46584;Laerm;32309;48.858;8.252;2023-02-27T17:32:26;69.94;46.59;90.01;;
46584;Laerm;32309;48.858;8.252;2023-02-27T17:34:26;67.47;46.50;89.54;;
46584;Laerm;32309;48.858;8.252;2023-02-27T17:36:27;69.31;47.02;95.15;;
46584;Laerm;32309;48.858;8.252;2023-02-27T17:40:27;60.36;47.48;87.88;;
46584;Laerm;32309;48.858;8.252;2023-02-27T17:42:28;74.67;46.55;98.17;;
46584;Laerm;32309;48.858;8.252;2023-02-27T17:44:28;55.95;46.10;73.58;;
46584;Laerm;32309;48.858;8.252;2023-02-27T17:46:29;53.61;46.87;72.82;;
46584;Laerm;32309;48.858;8.252;2023-02-27T17:48:29;51.57;46.05;65.37;;
46584;Laerm;32309;48.858;8.252;2023-02-27T17:52:31;72.05;48.09;93.21;;
46584;Laerm;32309;48.858;8.252;2023-02-27T17:54:32;70.76;47.34;94.27;;